createdAt,value
2022-10-19T00:48:18.112Z,99.90
2022-10-19T00:50:46.614Z,99.90
2022-10-19T00:53:13.540Z,99.90
2022-10-19T00:55:42.003Z,99.90
2022-10-19T02:44:25.375Z,99.90
2022-10-19T02:47:03.110Z,99.90
2022-10-19T02:49:32.971Z,99.90
2022-10-19T02:52:08.604Z,99.90
2022-10-19T04:13:33.638Z,99.90
2022-10-19T04:16:01.004Z,99.90
2022-10-19T04:18:27.972Z,99.90
2022-10-19T04:20:59.319Z,99.90
2022-10-19T04:55:28.659Z,99.90
2022-10-19T04:57:55.424Z,99.90
2022-10-19T05:00:22.298Z,99.90
2022-10-19T05:02:49.080Z,99.90
2022-10-19T05:05:15.991Z,99.90
2022-10-19T05:07:42.944Z,99.90
2022-10-19T05:10:10.562Z,99.90
2022-10-19T05:12:37.413Z,99.90
2022-10-19T05:15:04.635Z,99.90
2022-10-19T05:17:35.016Z,99.90
2022-10-19T05:20:02.165Z,99.90
2022-10-19T05:22:29.043Z,99.90
2022-10-19T05:24:58.117Z,99.90
2022-10-19T10:43:59.579Z,99.90
2022-10-19T10:46:35.203Z,99.90
2022-10-19T10:57:12.644Z,99.90
2022-10-19T11:07:24.184Z,99.90
2022-10-19T11:35:49.719Z,99.90
2022-10-19T11:39:04.160Z,99.90
2022-10-19T11:41:56.626Z,99.90
2022-10-19T11:44:28.513Z,99.90
2022-10-19T11:47:23.192Z,99.90
2022-10-19T11:50:31.908Z,99.50
2022-10-19T11:53:14.222Z,99.50
2022-10-19T11:55:40.985Z,99.40
2022-10-19T11:58:41.259Z,98.80
2022-10-19T12:01:41.870Z,98.00
2022-10-19T12:04:23.537Z,97.90
2022-10-19T12:06:58.217Z,98.50
2022-10-19T12:09:40.202Z,98.80
2022-10-19T12:12:34.118Z,98.10
2022-10-19T12:15:17.700Z,97.20
2022-10-19T12:17:49.707Z,97.80
2022-10-19T12:20:42.957Z,96.50
2022-10-19T12:23:37.918Z,96.40
2022-10-19T12:26:10.459Z,95.80
2022-10-19T12:28:41.860Z,96.10
2022-10-19T12:31:11.146Z,96.20
2022-10-19T12:33:46.486Z,97.40
2022-10-19T12:36:23.987Z,96.80
2022-10-19T12:39:00.696Z,96.40
2022-10-19T12:41:53.179Z,97.10
2022-10-19T12:47:15.546Z,95.70
2022-10-19T12:49:47.686Z,94.70
2022-10-19T12:52:34.644Z,95.70
2022-10-19T12:57:40.263Z,95.00
2022-10-19T13:00:23.738Z,94.70
2022-10-19T13:05:57.323Z,94.50
2022-10-19T13:08:31.924Z,93.70
2022-10-19T13:11:16.911Z,93.10
2022-10-19T13:14:03.453Z,92.80
2022-10-19T13:16:30.217Z,93.20
2022-10-19T13:19:00.167Z,94.10
2022-10-19T13:21:54.794Z,93.00
2022-10-19T13:24:24.494Z,94.10
2022-10-19T13:27:03.476Z,92.60
2022-10-19T13:29:43.295Z,92.30
2022-10-19T13:32:41.039Z,92.20
2022-10-19T13:35:29.495Z,93.10
2022-10-19T13:38:24.363Z,94.20
2022-10-19T13:40:51.178Z,93.20
2022-10-19T13:43:26.854Z,93.50
2022-10-19T13:46:09.273Z,93.20
2022-10-19T13:49:02.283Z,92.70
2022-10-19T13:52:01.339Z,93.00
2022-10-19T13:54:52.623Z,93.40
2022-10-19T13:57:42.246Z,93.20
2022-10-19T14:00:18.625Z,93.80
2022-10-19T14:03:07.978Z,93.30
2022-10-19T14:05:56.153Z,94.30
2022-10-19T14:08:44.927Z,94.80
2022-10-19T14:11:17.534Z,95.00
2022-10-19T14:13:44.641Z,94.90
2022-10-19T14:16:22.039Z,95.00
2022-10-19T14:18:55.780Z,95.40
2022-10-19T14:21:37.007Z,96.30
2022-10-19T14:24:27.895Z,96.70
2022-10-19T14:26:58.625Z,97.70
2022-10-19T14:29:25.541Z,97.60
2022-10-19T14:31:53.943Z,97.50
2022-10-19T14:34:21.482Z,97.50
2022-10-19T14:39:27.666Z,97.70
2022-10-19T14:41:55.803Z,99.90
2022-10-19T14:44:37.471Z,99.90
2022-10-19T14:47:18.333Z,99.10
2022-10-19T14:49:45.313Z,99.30
2022-10-19T14:52:18.170Z,99.70
2022-10-19T14:54:49.840Z,99.90
2022-10-19T14:57:32.289Z,99.90
2022-10-19T15:00:03.316Z,99.90
2022-10-19T15:02:44.918Z,99.90
2022-10-19T15:56:22.879Z,99.90
2022-10-19T15:58:53.481Z,99.90
2022-10-19T16:03:49.937Z,99.90
2022-10-19T16:06:18.261Z,99.90
2022-10-19T16:08:48.295Z,99.90
2022-10-19T16:13:43.714Z,99.90
2022-10-19T16:16:14.728Z,99.90
2022-10-19T16:18:41.573Z,99.90
2022-10-19T16:21:08.452Z,99.90
2022-10-19T16:23:39.384Z,99.90
2022-10-19T16:26:09.111Z,99.90
2022-10-19T17:48:32.181Z,99.90
2022-10-19T17:51:01.422Z,99.90
2022-10-19T17:53:29.482Z,99.90
2022-10-19T18:48:27.503Z,99.90
2022-10-19T19:18:34.249Z,99.90
2022-10-19T19:53:01.660Z,99.90
2022-10-19T19:55:28.752Z,99.90
2022-10-19T19:57:56.000Z,99.90
2022-10-19T20:00:26.865Z,99.90
2022-10-19T20:02:58.424Z,99.90
2022-10-19T20:05:26.451Z,99.90
2022-10-19T20:07:53.243Z,99.90
2022-10-19T20:10:20.036Z,99.90
2022-10-19T20:12:47.738Z,99.90
2022-10-19T20:25:06.511Z,99.90
2022-10-19T20:30:07.182Z,99.90
2022-10-19T20:32:34.509Z,99.90
2022-10-19T20:35:03.600Z,99.90
2022-10-19T20:37:31.375Z,99.90
2022-10-19T20:42:26.686Z,99.90
2022-10-19T22:31:25.425Z,99.90
2022-10-19T22:33:52.215Z,99.90
2022-10-19T22:36:19.173Z,99.90
2022-10-19T22:38:46.199Z,99.90
2022-10-19T22:41:12.991Z,99.90
2022-10-19T22:43:39.754Z,99.90
2022-10-19T22:46:06.644Z,99.90
2022-10-19T22:48:33.386Z,99.90
2022-10-19T22:51:00.157Z,99.90
2022-10-19T23:32:56.269Z,99.90
2022-10-19T23:35:23.044Z,99.90
2022-10-19T23:37:49.795Z,99.90
2022-10-19T23:40:16.588Z,99.90
